Ann Arbor, MI

10:21 AM EST on February 09, 2016 (GMT -0500)
Polo Fields | | Change Station
CLOSE
Current Station
Personal Weather Station
Location: Ann Arbor, MI
Elevation: 912 ft
Nearby Weather Stations

Elev 912 ft 42.27 °N, 83.82 °W | Updated 4 seconds ago

Snow
Snow
30.6 °F
Feels Like 26 °F
N
4.7
Wind Variable Wind from WNW
Gusts 9.4 mph

Today
High -- | Low -- °F
--% Chance of Precip.
Yesterday
High -- | Low -- °F
Precip. -- in
Pressure 29.59 in
Visibility 4.0 miles
Clouds Mostly Cloudy 1500 ft
Overcast 3800 ft
Windchill 26 °F
Dew Point 27 °F
Humidity 85%
Rainfall 0.00 in
Snow Depth Not available.
7:40 AM 5:59 PM
New Moon, 1% visible
SPECI KARB 091515Z 32011KT 4SM -SN BR BKN015 OVC038 M02/M04 A2959 RMK AO2 P0001 T10171039
Pressure 29.59 in
Visibility 4.0 miles
Clouds Mostly Cloudy 1500 ft
Overcast 3800 ft
Windchill 26 °F
Dew Point 27 °F
Humidity 85%
Rainfall 0.00 in
Snow Depth Not available.
7:40 AM 5:59 PM
New Moon, 1% visible
SPECI KARB 091515Z 32011KT 4SM -SN BR BKN015 OVC038 M02/M04 A2959 RMK AO2 P0001 T10171039

10-Day Weather Forecast

Almanac

Astronomy

Feb. 09, 2016 Rise Set
Actual Time
Civil Twilight
Nautical Twilight
Astronomical Twilight
Moon
Length of Visible Light
Length of Day
Tomorrow will be .
, % of the Moon is Illuminated

Today's Extremes

State Highs State Lows

Community

WunderPhotos

Upload Photos

1,891,619 photos uploaded!

WunderBlog® & News

Nearby

Air Quality

  Air Quality AQ Index Pollutant
Not available.

Snow Depth

Station Depth Elevation

Earthquake Activity

City Distance Mag. Time & Date
Minimum magnitude displayed is 2.5.

Coastal Water Temperatures

Place Temperature

Stations

Nearby Weather Stations

Station Location Temp. Windchill Dew Point Humidity Wind Precip. Elev Updated Type
                   

Watches & Warnings

There are currently no watches in effect.